KLM1188 EDDF-LPPT
Flight info
| Callsign | KLM1188 |
|---|---|
| Flight time | 1h 3m |
| Altitude | 38000 |
| Route | SOBRA2L/18 SOBRA Y180 DIK UN857 TOLVU/N0483F370 DCT RAPOR DCT GIMER/N0483F350 DCT ESTOC UT300 PON UN872 GODIX/N0493F310 UN872 DIDAK/N0484F370 UN872 TERPO/N0485F350 UN872 ERIGA UZ218 FUJTI/N0485F370 DCT ATLEN DCT ABUPI DCT XAMAX |
| Aircraft | B77W/H-SDE1E2E3FGHIJ2J3J4J5M1RWXY/LB1D1 |
Departure
| Time | 2026-05-07 17:08 |
|---|---|
| Airport | Frankfurt Main Airport (EDDF) |
Arrival
| Time | 2026-05-07 18:11 |
|---|---|
| Airport | Lisbon Humberto Delgado Airport (LPPT) |
| Time | Latitude | Longitude | Altitude | Speed | Heading |
|---|---|---|---|---|---|
| 2026-05-07 16:39 | 50.04725 | 8.56278 | 369 ft | 0 kts | 338° |
| 2026-05-07 16:56 | 50.04698 | 8.56293 | 364 ft | 4 kts | 341° |
| 2026-05-07 16:57 | 50.04672 | 8.56307 | 366 ft | 4 kts | 341° |
| 2026-05-07 16:57 | 50.04652 | 8.56320 | 369 ft | 4 kts | 313° |
| 2026-05-07 16:57 | 50.04646 | 8.56350 | 369 ft | 4 kts | 251° |
| 2026-05-07 16:57 | 50.04654 | 8.56381 | 367 ft | 0 kts | 249° |
| 2026-05-07 17:00 | 50.04650 | 8.56365 | 363 ft | 4 kts | 249° |
| 2026-05-07 17:00 | 50.04635 | 8.56302 | 364 ft | 9 kts | 249° |
| 2026-05-07 17:00 | 50.04610 | 8.56200 | 367 ft | 11 kts | 249° |
| 2026-05-07 17:00 | 50.04585 | 8.56094 | 369 ft | 11 kts | 249° |
| 2026-05-07 17:01 | 50.04552 | 8.55992 | 369 ft | 11 kts | 227° |
| 2026-05-07 17:01 | 50.04477 | 8.55937 | 368 ft | 13 kts | 198° |
| 2026-05-07 17:01 | 50.04383 | 8.55917 | 362 ft | 15 kts | 173° |
| 2026-05-07 17:01 | 50.04296 | 8.55957 | 363 ft | 13 kts | 162° |
| 2026-05-07 17:02 | 50.04235 | 8.55927 | 362 ft | 7 kts | 248° |
| 2026-05-07 17:02 | 50.04216 | 8.55844 | 360 ft | 10 kts | 251° |
| 2026-05-07 17:02 | 50.04191 | 8.55730 | 363 ft | 12 kts | 250° |
| 2026-05-07 17:02 | 50.04160 | 8.55600 | 367 ft | 14 kts | 249° |
| 2026-05-07 17:03 | 50.04120 | 8.55439 | 368 ft | 18 kts | 249° |
| 2026-05-07 17:03 | 50.04076 | 8.55256 | 369 ft | 18 kts | 249° |
| 2026-05-07 17:03 | 50.04031 | 8.55070 | 368 ft | 18 kts | 249° |
| 2026-05-07 17:03 | 50.03987 | 8.54884 | 369 ft | 18 kts | 249° |
| 2026-05-07 17:04 | 50.03942 | 8.54695 | 366 ft | 19 kts | 249° |
| 2026-05-07 17:04 | 50.03896 | 8.54504 | 367 ft | 19 kts | 249° |
| 2026-05-07 17:04 | 50.03839 | 8.54324 | 368 ft | 19 kts | 236° |
| 2026-05-07 17:04 | 50.03781 | 8.54141 | 373 ft | 19 kts | 248° |
| 2026-05-07 17:05 | 50.03735 | 8.53949 | 371 ft | 19 kts | 249° |
| 2026-05-07 17:05 | 50.03689 | 8.53758 | 372 ft | 19 kts | 249° |
| 2026-05-07 17:05 | 50.03642 | 8.53566 | 369 ft | 19 kts | 249° |
| 2026-05-07 17:05 | 50.03595 | 8.53375 | 371 ft | 19 kts | 249° |
| 2026-05-07 17:06 | 50.03549 | 8.53186 | 372 ft | 19 kts | 249° |
| 2026-05-07 17:06 | 50.03503 | 8.52995 | 373 ft | 19 kts | 249° |
| 2026-05-07 17:06 | 50.03454 | 8.52805 | 382 ft | 19 kts | 248° |
| 2026-05-07 17:06 | 50.03418 | 8.52674 | 384 ft | 10 kts | 241° |
| 2026-05-07 17:07 | 50.03371 | 8.52597 | 382 ft | 9 kts | 199° |
| 2026-05-07 17:07 | 50.03289 | 8.52596 | 379 ft | 22 kts | 179° |
| 2026-05-07 17:07 | 50.02857 | 8.52600 | 374 ft | 104 kts | 180° |
| 2026-05-07 17:07 | 50.01884 | 8.52610 | 391 ft | 168 kts | 179° |
| 2026-05-07 17:08 | 50.00707 | 8.52622 | 1051 ft | 174 kts | 180° |
| 2026-05-07 17:08 | 49.99458 | 8.52656 | 1755 ft | 184 kts | 178° |
| 2026-05-07 17:08 | 49.98138 | 8.52748 | 2327 ft | 201 kts | 177° |
| 2026-05-07 17:08 | 49.96646 | 8.52864 | 2674 ft | 223 kts | 177° |
| 2026-05-07 17:09 | 49.95081 | 8.52980 | 3429 ft | 231 kts | 178° |
| 2026-05-07 17:09 | 49.93448 | 8.53094 | 3948 ft | 236 kts | 178° |
| 2026-05-07 17:09 | 49.91785 | 8.53205 | 4015 ft | 241 kts | 179° |
| 2026-05-07 17:09 | 49.90071 | 8.53318 | 4374 ft | 251 kts | 179° |
| 2026-05-07 17:10 | 49.88283 | 8.53433 | 5043 ft | 262 kts | 179° |
| 2026-05-07 17:10 | 49.86482 | 8.53153 | 5641 ft | 267 kts | 200° |
| 2026-05-07 17:10 | 49.84740 | 8.52086 | 6393 ft | 272 kts | 203° |
| 2026-05-07 17:10 | 49.82960 | 8.51028 | 7263 ft | 274 kts | 202° |
| 2026-05-07 17:11 | 49.81162 | 8.50001 | 8161 ft | 276 kts | 202° |
| 2026-05-07 17:11 | 49.79360 | 8.48983 | 9018 ft | 280 kts | 201° |
| 2026-05-07 17:11 | 49.77586 | 8.47749 | 9777 ft | 282 kts | 218° |
| 2026-05-07 17:11 | 49.76314 | 8.45447 | 10407 ft | 289 kts | 245° |
| 2026-05-07 17:12 | 49.75844 | 8.42329 | 10666 ft | 313 kts | 272° |
| 2026-05-07 17:12 | 49.76254 | 8.38914 | 10848 ft | 334 kts | 285° |
| 2026-05-07 17:12 | 49.76882 | 8.35304 | 11146 ft | 357 kts | 285° |
| 2026-05-07 17:12 | 49.77520 | 8.31566 | 11881 ft | 368 kts | 284° |
| 2026-05-07 17:13 | 49.77954 | 8.28940 | 12526 ft | 372 kts | 284° |
| 2026-05-07 17:13 | 49.78582 | 8.25064 | 13581 ft | 376 kts | 284° |
| 2026-05-07 17:13 | 49.80478 | 8.13190 | 16457 ft | 388 kts | 283° |
| 2026-05-07 17:13 | 49.83030 | 7.97107 | 19825 ft | 406 kts | 283° |
| 2026-05-07 17:14 | 49.85766 | 7.79742 | 22833 ft | 425 kts | 283° |
| 2026-05-07 17:14 | 49.88607 | 7.61533 | 25394 ft | 440 kts | 283° |
| 2026-05-07 17:14 | 49.91479 | 7.42704 | 27665 ft | 453 kts | 283° |
| 2026-05-07 17:14 | 49.94370 | 7.23579 | 29539 ft | 466 kts | 283° |
| 2026-05-07 17:15 | 49.97332 | 7.03737 | 31137 ft | 472 kts | 283° |
| 2026-05-07 17:15 | 49.99204 | 6.84241 | 32835 ft | 468 kts | 269° |
| 2026-05-07 17:15 | 49.98531 | 6.64167 | 34579 ft | 461 kts | 266° |
| 2026-05-07 17:15 | 49.95301 | 6.45128 | 35648 ft | 464 kts | 246° |
| 2026-05-07 17:16 | 49.90020 | 6.26640 | 36088 ft | 470 kts | 246° |
| 2026-05-07 17:16 | 49.84139 | 6.08466 | 36019 ft | 468 kts | 236° |
| 2026-05-07 17:16 | 49.71387 | 5.75253 | 36055 ft | 452 kts | 251° |
| 2026-05-07 17:17 | 49.62685 | 5.37982 | 36097 ft | 467 kts | 250° |
| 2026-05-07 17:17 | 49.55326 | 5.00049 | 36037 ft | 457 kts | 255° |
| 2026-05-07 17:18 | 49.48683 | 4.62911 | 36074 ft | 455 kts | 254° |
| 2026-05-07 17:18 | 49.43181 | 4.32769 | 36121 ft | 467 kts | 254° |
| 2026-05-07 17:18 | 49.36149 | 3.94767 | 36064 ft | 468 kts | 256° |
| 2026-05-07 17:19 | 49.25155 | 3.18804 | 35963 ft | 450 kts | 257° |
| 2026-05-07 17:19 | 49.19629 | 2.82196 | 36076 ft | 454 kts | 256° |
| 2026-05-07 17:19 | 49.13777 | 2.44348 | 36139 ft | 465 kts | 256° |
| 2026-05-07 17:20 | 49.09777 | 2.05543 | 36018 ft | 466 kts | 257° |
| 2026-05-07 17:20 | 48.99858 | 1.71296 | 36087 ft | 457 kts | 244° |
| 2026-05-07 17:20 | 48.78001 | 1.00113 | 37786 ft | 469 kts | 244° |
| 2026-05-07 17:21 | 48.65733 | 0.66774 | 38137 ft | 478 kts | 237° |
| 2026-05-07 17:21 | 48.51559 | 0.32569 | 38005 ft | 475 kts | 238° |
| 2026-05-07 17:21 | 48.37837 | -0.00607 | 37878 ft | 461 kts | 238° |
| 2026-05-07 17:21 | 48.23162 | -0.30507 | 37920 ft | 447 kts | 233° |
| 2026-05-07 17:22 | 48.08245 | -0.59695 | 38024 ft | 447 kts | 232° |
| 2026-05-07 17:22 | 47.92870 | -0.89379 | 38092 ft | 458 kts | 232° |
| 2026-05-07 17:22 | 47.61362 | -1.49243 | 37941 ft | 465 kts | 232° |
| 2026-05-07 17:23 | 47.26375 | -2.01264 | 37902 ft | 452 kts | 211° |
| 2026-05-07 17:23 | 46.82905 | -2.39011 | 38058 ft | 463 kts | 212° |
| 2026-05-07 17:24 | 46.38053 | -2.78050 | 37935 ft | 469 kts | 212° |
| 2026-05-07 17:24 | 46.16852 | -2.99217 | 37903 ft | 457 kts | 223° |
| 2026-05-07 17:24 | 45.98177 | -3.22561 | 37946 ft | 456 kts | 221° |
| 2026-05-07 17:25 | 45.58640 | -3.69799 | 38021 ft | 473 kts | 221° |
| 2026-05-07 17:25 | 45.18426 | -4.17019 | 37866 ft | 468 kts | 221° |
| 2026-05-07 17:26 | 44.78832 | -4.62640 | 37943 ft | 462 kts | 221° |
| 2026-05-07 17:26 | 44.37428 | -5.06585 | 37951 ft | 481 kts | 213° |
| 2026-05-07 17:27 | 43.95123 | -5.42786 | 37782 ft | 473 kts | 214° |
| 2026-05-07 17:27 | 43.50874 | -5.80324 | 37740 ft | 465 kts | 215° |
| 2026-05-07 17:27 | 43.09263 | -6.15165 | 37893 ft | 464 kts | 215° |
| 2026-05-07 17:27 | 42.65004 | -6.51490 | 38065 ft | 470 kts | 215° |
| 2026-05-07 17:28 | 42.20356 | -6.87607 | 37869 ft | 462 kts | 216° |
| 2026-05-07 17:28 | 42.01753 | -7.02480 | 37815 ft | 454 kts | 216° |
| 2026-05-07 17:28 | 41.96345 | -7.06783 | 37853 ft | 449 kts | 216° |
| 2026-05-07 17:29 | 41.78217 | -7.20989 | 37850 ft | 447 kts | 215° |
| 2026-05-07 17:29 | 41.42990 | -7.48314 | 37864 ft | 445 kts | 215° |
| 2026-05-07 17:30 | 41.37625 | -7.52460 | 37941 ft | 446 kts | 215° |
| 2026-05-07 17:30 | 41.32206 | -7.56638 | 37881 ft | 452 kts | 215° |
| 2026-05-07 17:31 | 41.26781 | -7.60803 | 37900 ft | 452 kts | 215° |
| 2026-05-07 17:31 | 41.21318 | -7.64987 | 37872 ft | 452 kts | 215° |
| 2026-05-07 17:32 | 41.15897 | -7.69128 | 37905 ft | 450 kts | 215° |
| 2026-05-07 17:32 | 41.10456 | -7.73282 | 37887 ft | 449 kts | 215° |
| 2026-05-07 17:33 | 41.05061 | -7.77392 | 37875 ft | 448 kts | 215° |
| 2026-05-07 17:33 | 40.82455 | -7.94527 | 37861 ft | 441 kts | 215° |
| 2026-05-07 17:34 | 40.67493 | -8.05796 | 37917 ft | 439 kts | 215° |
| 2026-05-07 17:34 | 40.60567 | -8.10990 | 37883 ft | 439 kts | 215° |
| 2026-05-07 17:35 | 40.55208 | -8.15001 | 37891 ft | 439 kts | 215° |
| 2026-05-07 17:35 | 40.37724 | -8.28037 | 37793 ft | 441 kts | 215° |
| 2026-05-07 17:36 | 40.35016 | -8.30054 | 36978 ft | 450 kts | 215° |
| 2026-05-07 17:36 | 40.32293 | -8.32076 | 36249 ft | 448 kts | 214° |
| 2026-05-07 17:36 | 40.29613 | -8.34061 | 35463 ft | 447 kts | 214° |
| 2026-05-07 17:36 | 40.26896 | -8.36073 | 34597 ft | 448 kts | 214° |
| 2026-05-07 17:37 | 40.24163 | -8.38096 | 33682 ft | 449 kts | 213° |
| 2026-05-07 17:37 | 40.21465 | -8.40092 | 32648 ft | 451 kts | 213° |
| 2026-05-07 17:37 | 40.18713 | -8.42126 | 31633 ft | 453 kts | 213° |
| 2026-05-07 17:37 | 40.15961 | -8.44157 | 30662 ft | 455 kts | 213° |
| 2026-05-07 17:38 | 40.13212 | -8.46184 | 29922 ft | 451 kts | 213° |
| 2026-05-07 17:38 | 40.10518 | -8.48168 | 29361 ft | 442 kts | 212° |
| 2026-05-07 17:38 | 40.07875 | -8.50110 | 29196 ft | 426 kts | 212° |
| 2026-05-07 17:38 | 40.05336 | -8.51960 | 29033 ft | 409 kts | 210° |
| 2026-05-07 17:39 | 40.02718 | -8.53198 | 28917 ft | 402 kts | 195° |
| 2026-05-07 17:39 | 39.99960 | -8.53499 | 28815 ft | 393 kts | 182° |
| 2026-05-07 17:39 | 39.97267 | -8.53253 | 28619 ft | 383 kts | 180° |
| 2026-05-07 17:39 | 39.94631 | -8.52979 | 28383 ft | 374 kts | 180° |
| 2026-05-07 17:40 | 39.92050 | -8.52722 | 28016 ft | 369 kts | 181° |
| 2026-05-07 17:40 | 39.89506 | -8.52489 | 27611 ft | 365 kts | 181° |
| 2026-05-07 17:40 | 39.87006 | -8.52274 | 27166 ft | 363 kts | 181° |
| 2026-05-07 17:40 | 39.84490 | -8.52064 | 26712 ft | 361 kts | 181° |
| 2026-05-07 17:41 | 39.81988 | -8.51858 | 26298 ft | 359 kts | 181° |
| 2026-05-07 17:41 | 39.79498 | -8.51653 | 25903 ft | 356 kts | 181° |
| 2026-05-07 17:41 | 39.77043 | -8.51534 | 25461 ft | 347 kts | 189° |
| 2026-05-07 17:41 | 39.74744 | -8.52233 | 24984 ft | 340 kts | 207° |
| 2026-05-07 17:42 | 39.72680 | -8.53684 | 24582 ft | 335 kts | 213° |
| 2026-05-07 17:42 | 39.70693 | -8.55264 | 24183 ft | 333 kts | 214° |
| 2026-05-07 17:42 | 39.68752 | -8.56834 | 23803 ft | 331 kts | 214° |
| 2026-05-07 17:42 | 39.66793 | -8.58413 | 23419 ft | 330 kts | 213° |
| 2026-05-07 17:43 | 39.64845 | -8.59972 | 22980 ft | 328 kts | 213° |
| 2026-05-07 17:43 | 39.62901 | -8.61517 | 22548 ft | 326 kts | 213° |
| 2026-05-07 17:43 | 39.60978 | -8.63037 | 22106 ft | 325 kts | 213° |
| 2026-05-07 17:43 | 39.59043 | -8.64561 | 21662 ft | 324 kts | 212° |
| 2026-05-07 17:44 | 39.57135 | -8.66061 | 21237 ft | 323 kts | 212° |
| 2026-05-07 17:44 | 39.55215 | -8.67570 | 20820 ft | 322 kts | 213° |
| 2026-05-07 17:44 | 39.53352 | -8.69182 | 20411 ft | 320 kts | 216° |
| 2026-05-07 17:44 | 39.51538 | -8.70867 | 20000 ft | 319 kts | 217° |
| 2026-05-07 17:45 | 39.49767 | -8.72541 | 19648 ft | 317 kts | 216° |
| 2026-05-07 17:45 | 39.47983 | -8.74227 | 19293 ft | 314 kts | 216° |
| 2026-05-07 17:45 | 39.46220 | -8.75887 | 18918 ft | 313 kts | 215° |
| 2026-05-07 17:45 | 39.44455 | -8.77542 | 18512 ft | 313 kts | 215° |
| 2026-05-07 17:46 | 39.42700 | -8.79180 | 18124 ft | 312 kts | 215° |
| 2026-05-07 17:46 | 39.40934 | -8.80825 | 17757 ft | 310 kts | 214° |
| 2026-05-07 17:46 | 39.39191 | -8.82446 | 17373 ft | 307 kts | 214° |
| 2026-05-07 17:46 | 39.37458 | -8.84054 | 16977 ft | 306 kts | 214° |
| 2026-05-07 17:47 | 39.35742 | -8.85645 | 16576 ft | 305 kts | 214° |
| 2026-05-07 17:47 | 39.34025 | -8.87235 | 16252 ft | 302 kts | 214° |
| 2026-05-07 17:47 | 39.32327 | -8.88807 | 15908 ft | 299 kts | 214° |
| 2026-05-07 17:47 | 39.30631 | -8.90375 | 15507 ft | 299 kts | 214° |
| 2026-05-07 17:48 | 39.28939 | -8.91938 | 15144 ft | 298 kts | 214° |
| 2026-05-07 17:48 | 39.27275 | -8.93475 | 14805 ft | 295 kts | 214° |
| 2026-05-07 17:48 | 39.25603 | -8.95018 | 14485 ft | 293 kts | 214° |
| 2026-05-07 17:48 | 39.23948 | -8.96544 | 14130 ft | 292 kts | 214° |
| 2026-05-07 17:49 | 39.22290 | -8.98072 | 13734 ft | 292 kts | 214° |
| 2026-05-07 17:49 | 39.20659 | -8.99575 | 13361 ft | 290 kts | 214° |
| 2026-05-07 17:49 | 39.19058 | -9.01049 | 13049 ft | 287 kts | 214° |
| 2026-05-07 17:49 | 39.17437 | -9.02541 | 12705 ft | 284 kts | 214° |
| 2026-05-07 17:50 | 39.15820 | -9.04028 | 12328 ft | 284 kts | 214° |
| 2026-05-07 17:50 | 39.14229 | -9.05488 | 11933 ft | 284 kts | 214° |
| 2026-05-07 17:50 | 39.12623 | -9.06964 | 11627 ft | 281 kts | 214° |
| 2026-05-07 17:50 | 39.11033 | -9.08424 | 11314 ft | 278 kts | 214° |
| 2026-05-07 17:51 | 39.09462 | -9.09866 | 10984 ft | 277 kts | 214° |
| 2026-05-07 17:51 | 39.07901 | -9.11297 | 10599 ft | 278 kts | 214° |
| 2026-05-07 17:51 | 39.06324 | -9.12742 | 10275 ft | 276 kts | 214° |
| 2026-05-07 17:51 | 39.04762 | -9.14173 | 9980 ft | 274 kts | 214° |
| 2026-05-07 17:52 | 39.03213 | -9.15591 | 9617 ft | 273 kts | 214° |
| 2026-05-07 17:52 | 39.01689 | -9.16985 | 9273 ft | 271 kts | 214° |
| 2026-05-07 17:52 | 39.00150 | -9.18393 | 8918 ft | 270 kts | 214° |
| 2026-05-07 17:52 | 38.98624 | -9.19787 | 8565 ft | 269 kts | 214° |
| 2026-05-07 17:53 | 38.97101 | -9.21179 | 8253 ft | 266 kts | 214° |
| 2026-05-07 17:53 | 38.95613 | -9.22537 | 8023 ft | 263 kts | 214° |
| 2026-05-07 17:53 | 38.94142 | -9.23880 | 7969 ft | 257 kts | 214° |
| 2026-05-07 17:53 | 38.92669 | -9.25224 | 7951 ft | 261 kts | 214° |
| 2026-05-07 17:54 | 38.91163 | -9.26596 | 7948 ft | 268 kts | 214° |
| 2026-05-07 17:54 | 38.89659 | -9.27966 | 7949 ft | 268 kts | 214° |
| 2026-05-07 17:54 | 38.88140 | -9.29349 | 7937 ft | 265 kts | 214° |
| 2026-05-07 17:54 | 38.86647 | -9.30708 | 7933 ft | 262 kts | 214° |
| 2026-05-07 17:55 | 38.85162 | -9.32060 | 7932 ft | 260 kts | 214° |
| 2026-05-07 17:55 | 38.83671 | -9.33414 | 7936 ft | 264 kts | 214° |
| 2026-05-07 17:55 | 38.82162 | -9.34786 | 7946 ft | 267 kts | 214° |
| 2026-05-07 17:55 | 38.80660 | -9.36150 | 7939 ft | 266 kts | 214° |
| 2026-05-07 17:56 | 38.79150 | -9.37521 | 7930 ft | 264 kts | 214° |
| 2026-05-07 17:56 | 38.77663 | -9.38870 | 7940 ft | 262 kts | 214° |
| 2026-05-07 17:56 | 38.76172 | -9.40222 | 7937 ft | 263 kts | 214° |
| 2026-05-07 17:56 | 38.74671 | -9.41582 | 7936 ft | 263 kts | 214° |
| 2026-05-07 17:57 | 38.73191 | -9.42923 | 7929 ft | 264 kts | 214° |
| 2026-05-07 17:57 | 38.72193 | -9.43826 | 7932 ft | 265 kts | 214° |
| 2026-05-07 17:57 | 38.70172 | -9.45657 | 7935 ft | 266 kts | 214° |
| 2026-05-07 17:57 | 38.68670 | -9.47015 | 7941 ft | 267 kts | 215° |
| 2026-05-07 17:58 | 38.67147 | -9.48392 | 7936 ft | 269 kts | 215° |
| 2026-05-07 17:58 | 38.65612 | -9.49781 | 7940 ft | 270 kts | 215° |
| 2026-05-07 17:58 | 38.64089 | -9.51156 | 7941 ft | 270 kts | 215° |
| 2026-05-07 17:58 | 38.62552 | -9.52543 | 7942 ft | 270 kts | 215° |
| 2026-05-07 17:59 | 38.61011 | -9.53932 | 7939 ft | 269 kts | 214° |
| 2026-05-07 17:59 | 38.59947 | -9.54712 | 7930 ft | 265 kts | 200° |
| 2026-05-07 17:59 | 38.57513 | -9.54983 | 7946 ft | 271 kts | 172° |
| 2026-05-07 17:59 | 38.55650 | -9.54496 | 7953 ft | 273 kts | 170° |
| 2026-05-07 18:00 | 38.54417 | -9.54168 | 7949 ft | 273 kts | 170° |
| 2026-05-07 18:00 | 38.52550 | -9.53681 | 7948 ft | 272 kts | 171° |
| 2026-05-07 18:00 | 38.50692 | -9.53203 | 7937 ft | 270 kts | 169° |
| 2026-05-07 18:00 | 38.48442 | -9.51911 | 7951 ft | 273 kts | 147° |
| 2026-05-07 18:01 | 38.47404 | -9.50969 | 7964 ft | 279 kts | 147° |
| 2026-05-07 18:01 | 38.45788 | -9.49564 | 7946 ft | 281 kts | 148° |
| 2026-05-07 18:01 | 38.44168 | -9.48183 | 7936 ft | 278 kts | 148° |
| 2026-05-07 18:01 | 38.42566 | -9.46822 | 7928 ft | 275 kts | 148° |
| 2026-05-07 18:02 | 38.40137 | -9.43213 | 7957 ft | 278 kts | 126° |
| 2026-05-07 18:02 | 38.39072 | -9.41131 | 7945 ft | 281 kts | 126° |
| 2026-05-07 18:02 | 38.37996 | -9.39065 | 7936 ft | 277 kts | 125° |
| 2026-05-07 18:03 | 38.37375 | -9.36797 | 7929 ft | 270 kts | 94° |
| 2026-05-07 18:03 | 38.37730 | -9.34498 | 7927 ft | 263 kts | 67° |
| 2026-05-07 18:03 | 38.38736 | -9.32565 | 7775 ft | 258 kts | 49° |
| 2026-05-07 18:03 | 38.40038 | -9.31054 | 7703 ft | 246 kts | 32° |
| 2026-05-07 18:04 | 38.41544 | -9.30210 | 7590 ft | 233 kts | 17° |
| 2026-05-07 18:04 | 38.43062 | -9.29647 | 7498 ft | 221 kts | 14° |
| 2026-05-07 18:04 | 38.44530 | -9.29133 | 7253 ft | 216 kts | 14° |
| 2026-05-07 18:04 | 38.45965 | -9.28625 | 7013 ft | 211 kts | 14° |
| 2026-05-07 18:05 | 38.47374 | -9.28119 | 6655 ft | 213 kts | 14° |
| 2026-05-07 18:05 | 38.48804 | -9.27597 | 6371 ft | 211 kts | 14° |
| 2026-05-07 18:05 | 38.50202 | -9.27082 | 6114 ft | 206 kts | 14° |
| 2026-05-07 18:05 | 38.51586 | -9.26567 | 5751 ft | 207 kts | 14° |
| 2026-05-07 18:06 | 38.52962 | -9.26052 | 5418 ft | 207 kts | 13° |
| 2026-05-07 18:06 | 38.54318 | -9.25543 | 5204 ft | 202 kts | 14° |
| 2026-05-07 18:06 | 38.55655 | -9.25039 | 4957 ft | 199 kts | 14° |
| 2026-05-07 18:06 | 38.56992 | -9.24534 | 4626 ft | 199 kts | 13° |
| 2026-05-07 18:07 | 38.58315 | -9.24032 | 4339 ft | 197 kts | 14° |
| 2026-05-07 18:07 | 38.59599 | -9.23457 | 4101 ft | 192 kts | 18° |
| 2026-05-07 18:07 | 38.60786 | -9.22851 | 4031 ft | 179 kts | 18° |
| 2026-05-07 18:07 | 38.61918 | -9.22255 | 4027 ft | 176 kts | 18° |
| 2026-05-07 18:08 | 38.63067 | -9.21646 | 4016 ft | 179 kts | 18° |
| 2026-05-07 18:08 | 38.64241 | -9.21038 | 3750 ft | 183 kts | 18° |
| 2026-05-07 18:08 | 38.65445 | -9.20411 | 3365 ft | 189 kts | 18° |
| 2026-05-07 18:08 | 38.66658 | -9.19704 | 2870 ft | 197 kts | 20° |
| 2026-05-07 18:09 | 38.67868 | -9.18947 | 2405 ft | 191 kts | 20° |
| 2026-05-07 18:09 | 38.69045 | -9.18296 | 2056 ft | 180 kts | 16° |
| 2026-05-07 18:09 | 38.70170 | -9.17754 | 1778 ft | 166 kts | 14° |
| 2026-05-07 18:09 | 38.71233 | -9.17206 | 1327 ft | 164 kts | 16° |
| 2026-05-07 18:10 | 38.72228 | -9.16704 | 1184 ft | 142 kts | 15° |
| 2026-05-07 18:10 | 38.73154 | -9.16250 | 1156 ft | 141 kts | 17° |
| 2026-05-07 18:10 | 38.74080 | -9.15763 | 1019 ft | 143 kts | 19° |
| 2026-05-07 18:10 | 38.74985 | -9.15271 | 735 ft | 139 kts | 17° |
| 2026-05-07 18:11 | 38.75865 | -9.14800 | 526 ft | 138 kts | 19° |
| 2026-05-07 18:11 | 38.76755 | -9.14335 | 391 ft | 137 kts | 22° |
| 2026-05-07 18:11 | 38.77598 | -9.13880 | 357 ft | 116 kts | 23° |
| 2026-05-07 18:11 | 38.77997 | -9.13660 | 357 ft | 42 kts | 24° |
| 2026-05-07 18:12 | 38.78254 | -9.13502 | 356 ft | 41 kts | 38° |
| 2026-05-07 18:12 | 38.78374 | -9.13327 | 359 ft | 11 kts | 80° |
| 2026-05-07 18:12 | 38.78352 | -9.13285 | 361 ft | 7 kts | 149° |
| 2026-05-07 18:12 | 38.78312 | -9.13279 | 358 ft | 8 kts | 189° |